Main page
METAR-TAF:

METAR-TAF

Airports :

Sligo Airport

Sligo, Ireland

latitude: 54-16-49N, longitude: 8-35-57W, elevation: 3 m

Current weather observation

The report was made 10 hours and 33 minutes ago, at 18:30 UTC
Wind 8 kt from the South with gusts up to 20 kt, varying between Southeast and South/Southwest
Temperature 16°C
Humidity 82%
Pressure 1005 hPa
Visibility 10 km or more
Broken clouds at a height of 1400 ft
Overcast at a height of 4700 ft

METAR: EISG 181830Z 18008G20KT 140V210 9999 BKN014 OVC047 16/13 Q1005

Time: 06:03 (05:03 UTC)

Forecast

The report was made 3 hours and 3 minutes ago, at 02:00 UTC
Forecast valid from 19 at 03 UTC to 19 at 12 UTC
Wind 9 kt from the South
Visibility 10 km or more
Broken clouds at a height of 1500 ft
Broken clouds at a height of 3000 ft
Temporary
from 19 at 03 UTC to 19 at 10 UTC
Visibility: 3000 m
Broken clouds at a height of 600 ft
rain, mist

TAF: EISG 190200Z 1903/1912 17009KT 9999 BKN015 BKN030 TEMPO 1903/1910 3000 RA BR BKN006

Weather observations and forecasts of more than 4000 airports (METAR and TAF reports).

The available stations are represented by yellow and red dots on the map.

Hover mouse over dot to see the name of the station.

Then click to see weather observations and forecasts.

To change the map : click on the green buttons with a black cross to zoom in, on the green button with a dash to zoom out, or on the green arrows for adjacent maps.


METAR-TAF: